createdAt,value
2017-08-24T00:00:14.363Z,89.88
2017-08-24T00:01:20.355Z,89.82
2017-08-24T00:02:30.518Z,89.95
2017-08-24T00:03:36.845Z,89.37
2017-08-24T00:04:43.015Z,88.72
2017-08-24T00:05:49.122Z,89.25
2017-08-24T00:06:55.257Z,91.92
2017-08-24T00:08:01.215Z,91.34
2017-08-24T00:09:07.426Z,90.08
2017-08-24T00:10:13.647Z,90.13
2017-08-24T00:11:19.781Z,90.72
2017-08-24T00:12:26.400Z,90.12
2017-08-24T00:13:32.578Z,89.84
2017-08-24T00:14:38.789Z,89.89
2017-08-24T00:15:45.446Z,90.71
2017-08-24T00:16:51.630Z,91.11
2017-08-24T00:17:57.580Z,90.09
2017-08-24T00:19:03.628Z,89.62
2017-08-24T00:20:09.718Z,90.07
2017-08-24T00:21:15.774Z,90.18
2017-08-24T00:22:21.812Z,89.68
2017-08-24T00:23:27.923Z,89.89
2017-08-24T00:24:34.056Z,89.49
2017-08-24T00:25:40.443Z,90.68
2017-08-24T00:26:46.565Z,91.46
2017-08-24T00:27:52.731Z,91.04
2017-08-24T00:28:59.373Z,91.44
2017-08-24T00:30:06.564Z,91.26
2017-08-24T00:31:12.863Z,91.07
2017-08-24T00:32:18.946Z,92.23
2017-08-24T00:33:24.696Z,91.40
2017-08-24T00:34:30.818Z,91.01
2017-08-24T00:35:37.459Z,91.42
2017-08-24T00:36:43.425Z,92.19
2017-08-24T00:37:49.640Z,91.83
2017-08-24T00:38:55.959Z,92.23
2017-08-24T00:40:02.461Z,92.17
2017-08-24T00:41:08.605Z,92.54
2017-08-24T00:42:15.023Z,92.75
2017-08-24T00:43:20.895Z,92.58
2017-08-24T00:44:27.001Z,92.49
2017-08-24T00:45:33.182Z,91.48
2017-08-24T00:46:39.383Z,91.10
2017-08-24T00:47:45.673Z,92.24
2017-08-24T00:48:51.652Z,92.13
2017-08-24T00:49:57.779Z,91.70
2017-08-24T00:51:03.842Z,91.94
2017-08-24T00:52:09.782Z,93.34
2017-08-24T00:53:16.141Z,93.00
2017-08-24T00:54:21.874Z,93.13
2017-08-24T00:55:28.173Z,92.84
2017-08-24T00:56:34.090Z,93.27
2017-08-24T00:57:40.285Z,93.12
2017-08-24T00:58:46.474Z,93.35
2017-08-24T00:59:52.684Z,93.43
2017-08-24T01:00:58.094Z,93.04
2017-08-24T01:02:04.060Z,93.18
2017-08-24T01:03:09.744Z,93.01
2017-08-24T01:04:15.833Z,93.14
2017-08-24T01:05:21.572Z,92.89
2017-08-24T01:06:27.724Z,92.10
2017-08-24T01:07:33.844Z,91.88
2017-08-24T01:08:39.907Z,91.42
2017-08-24T01:09:46.069Z,91.12
2017-08-24T01:10:52.178Z,91.40
2017-08-24T01:11:58.256Z,91.60
2017-08-24T01:13:04.354Z,91.05
2017-08-24T01:14:10.478Z,90.25
2017-08-24T01:15:16.866Z,90.54
2017-08-24T01:16:22.955Z,91.38
2017-08-24T01:17:28.920Z,91.89
2017-08-24T01:18:35.042Z,92.14
2017-08-24T01:19:40.761Z,91.87
2017-08-24T01:20:46.980Z,91.49
2017-08-24T01:21:52.204Z,91.32
2017-08-24T01:22:57.951Z,91.56
2017-08-24T01:24:03.725Z,91.71
2017-08-24T01:25:09.467Z,91.94
2017-08-24T01:26:15.198Z,91.73
2017-08-24T01:27:20.666Z,91.42
2017-08-24T01:28:26.386Z,91.26
2017-08-24T01:29:32.106Z,91.04
2017-08-24T01:30:38.143Z,90.90
2017-08-24T01:31:44.053Z,90.25
2017-08-24T01:32:50.102Z,91.35
2017-08-24T01:33:56.220Z,92.47
2017-08-24T01:35:02.301Z,92.73
2017-08-24T01:36:08.458Z,92.92
2017-08-24T01:37:14.648Z,93.07
2017-08-24T01:38:20.791Z,93.31
2017-08-24T01:39:26.899Z,93.45
2017-08-24T01:40:32.827Z,93.07
2017-08-24T01:41:38.887Z,93.28
2017-08-24T01:42:44.978Z,93.08
2017-08-24T01:43:51.094Z,92.81
2017-08-24T01:44:57.152Z,94.00
2017-08-24T01:46:02.454Z,94.01
2017-08-24T01:47:08.330Z,93.12
2017-08-24T01:48:14.438Z,92.61
2017-08-24T01:49:20.482Z,91.73
2017-08-24T01:50:26.559Z,93.08
2017-08-24T01:51:32.680Z,93.01
2017-08-24T01:52:38.761Z,93.75
2017-08-24T01:53:44.147Z,93.55
2017-08-24T01:54:50.221Z,92.66
2017-08-24T01:55:56.374Z,93.74
2017-08-24T01:57:02.462Z,93.81
2017-08-24T01:58:08.997Z,94.29
2017-08-24T01:59:15.097Z,94.49
2017-08-24T02:00:21.184Z,94.69
2017-08-24T02:01:27.094Z,95.93
2017-08-24T02:02:33.289Z,95.42
2017-08-24T02:03:39.391Z,95.20
2017-08-24T02:04:45.558Z,94.95
2017-08-24T02:05:51.627Z,94.27
2017-08-24T02:06:57.710Z,93.22
2017-08-24T02:08:03.778Z,92.28
2017-08-24T02:09:09.828Z,92.51
2017-08-24T02:10:15.973Z,93.07
2017-08-24T02:11:22.069Z,92.80
2017-08-24T02:12:28.156Z,93.14
2017-08-24T02:13:34.248Z,93.65
2017-08-24T02:14:40.348Z,94.89
2017-08-24T02:15:46.460Z,94.98
2017-08-24T02:16:52.570Z,95.08
2017-08-24T02:17:58.634Z,95.01
2017-08-24T02:19:04.711Z,96.10
2017-08-24T02:20:10.775Z,95.51
2017-08-24T02:21:16.925Z,95.09
2017-08-24T02:22:22.981Z,95.21
2017-08-24T02:23:29.130Z,94.51
2017-08-24T02:24:35.214Z,93.96
2017-08-24T02:25:41.273Z,93.20
2017-08-24T02:26:47.149Z,93.59
2017-08-24T02:27:53.192Z,93.28
2017-08-24T02:28:59.283Z,93.26
2017-08-24T02:30:05.404Z,92.94
2017-08-24T02:31:11.426Z,92.75
2017-08-24T02:32:17.576Z,92.52
2017-08-24T02:33:23.701Z,91.83
2017-08-24T02:34:30.086Z,92.20
2017-08-24T02:35:36.180Z,93.14
2017-08-24T02:36:42.312Z,93.55
2017-08-24T02:37:48.476Z,93.76
2017-08-24T02:38:54.630Z,93.68
2017-08-24T02:40:01.529Z,93.01
2017-08-24T02:41:07.677Z,91.98
2017-08-24T02:42:13.780Z,92.41
2017-08-24T02:43:19.884Z,93.01
2017-08-24T02:44:26.473Z,92.64
2017-08-24T02:45:32.648Z,92.85
2017-08-24T02:46:38.823Z,93.00
2017-08-24T02:47:44.956Z,93.47
2017-08-24T02:48:51.713Z,92.81
2017-08-24T02:49:58.041Z,93.45
2017-08-24T02:51:04.180Z,93.36
2017-08-24T02:52:10.590Z,93.35
2017-08-24T02:53:16.781Z,94.20
2017-08-24T02:54:23.064Z,94.46
2017-08-24T02:55:29.135Z,94.34
2017-08-24T02:56:35.231Z,93.79
2017-08-24T02:57:42.252Z,93.16
2017-08-24T02:58:48.473Z,92.62
2017-08-24T02:59:54.704Z,93.94
2017-08-24T03:01:00.806Z,94.05
2017-08-24T03:02:06.704Z,94.30
2017-08-24T03:03:12.841Z,93.67
2017-08-24T03:04:18.911Z,92.95
2017-08-24T03:05:25.356Z,92.37
2017-08-24T03:06:31.430Z,91.71
2017-08-24T03:07:38.343Z,92.01
2017-08-24T03:08:44.437Z,92.79
2017-08-24T03:09:50.509Z,92.50
2017-08-24T03:10:56.625Z,93.37
2017-08-24T03:12:02.747Z,93.43
2017-08-24T03:13:08.831Z,93.26
2017-08-24T03:14:14.902Z,93.96
2017-08-24T03:15:20.964Z,93.93
2017-08-24T03:16:27.146Z,94.13
2017-08-24T03:17:33.237Z,95.44
2017-08-24T03:18:39.350Z,95.75
2017-08-24T03:19:45.434Z,94.78
2017-08-24T03:20:51.532Z,93.80
2017-08-24T03:21:57.641Z,93.93
2017-08-24T03:23:03.709Z,93.49
2017-08-24T03:24:09.779Z,93.60
2017-08-24T03:25:15.845Z,93.67
2017-08-24T03:26:21.877Z,92.72
2017-08-24T03:27:28.046Z,93.24
2017-08-24T03:28:34.927Z,93.10
2017-08-24T03:29:43.942Z,93.34
2017-08-24T03:30:50.098Z,92.88
2017-08-24T03:31:57.007Z,93.09
2017-08-24T03:33:03.100Z,94.32
2017-08-24T03:34:09.596Z,94.33
2017-08-24T03:35:17.710Z,94.86
2017-08-24T03:36:24.291Z,94.08
2017-08-24T03:37:30.383Z,93.90
2017-08-24T03:38:36.504Z,93.86
2017-08-24T03:39:42.657Z,94.59
2017-08-24T03:40:48.766Z,94.51
2017-08-24T03:41:54.885Z,93.75
2017-08-24T03:43:01.002Z,93.18
2017-08-24T03:44:07.132Z,93.25
2017-08-24T03:45:13.172Z,93.34
2017-08-24T03:46:19.274Z,93.34
2017-08-24T03:47:25.338Z,93.67
2017-08-24T03:48:31.664Z,94.46
2017-08-24T03:49:38.315Z,94.80
2017-08-24T03:50:44.507Z,95.03
2017-08-24T03:51:50.607Z,93.97
2017-08-24T03:52:56.712Z,94.34
2017-08-24T03:54:02.876Z,94.65
2017-08-24T03:55:09.092Z,94.15
2017-08-24T03:56:15.160Z,93.28
2017-08-24T03:57:21.280Z,94.54
2017-08-24T03:58:27.437Z,95.07
2017-08-24T03:59:33.721Z,94.98
2017-08-24T04:00:39.873Z,95.22
2017-08-24T04:01:45.936Z,95.72
2017-08-24T04:02:52.377Z,95.92
2017-08-24T04:03:58.496Z,96.12
2017-08-24T04:05:04.564Z,96.07
2017-08-24T04:06:10.715Z,96.35
2017-08-24T04:07:16.874Z,96.21
2017-08-24T04:08:23.421Z,95.71
2017-08-24T04:09:29.436Z,95.70
2017-08-24T04:10:35.491Z,95.72
2017-08-24T04:11:41.562Z,95.50
2017-08-24T04:12:47.594Z,95.76
2017-08-24T04:13:54.134Z,95.63
2017-08-24T04:15:00.218Z,95.81
2017-08-24T04:16:06.585Z,95.81
2017-08-24T04:17:12.718Z,95.36
2017-08-24T04:18:18.775Z,95.36
2017-08-24T04:19:25.112Z,95.49
2017-08-24T04:20:31.193Z,95.28
2017-08-24T04:21:37.273Z,95.19
2017-08-24T04:22:43.408Z,94.64
2017-08-24T04:23:49.509Z,93.60
2017-08-24T04:24:55.626Z,93.28
2017-08-24T04:26:01.784Z,93.60
2017-08-24T04:27:07.887Z,94.20
2017-08-24T04:28:14.024Z,94.75
2017-08-24T04:29:20.324Z,94.92
2017-08-24T04:30:26.476Z,94.76
2017-08-24T04:31:32.562Z,94.30
2017-08-24T04:32:40.474Z,95.04
2017-08-24T04:33:47.637Z,94.98
2017-08-24T04:34:53.993Z,95.40
2017-08-24T04:36:00.665Z,95.99
2017-08-24T04:37:06.952Z,96.04
2017-08-24T04:38:13.764Z,95.12
2017-08-24T04:39:19.956Z,95.46
2017-08-24T04:40:26.613Z,95.14
2017-08-24T04:41:32.792Z,95.43
2017-08-24T04:42:39.744Z,95.21
2017-08-24T04:43:46.764Z,94.59
2017-08-24T04:44:53.185Z,93.52
2017-08-24T04:45:59.928Z,93.85
2017-08-24T04:47:08.654Z,94.76
2017-08-24T04:48:15.365Z,95.12
2017-08-24T04:49:22.171Z,94.67
2017-08-24T04:50:28.864Z,93.38
2017-08-24T04:51:35.769Z,94.21
2017-08-24T04:52:42.359Z,94.76
2017-08-24T04:53:50.674Z,95.83
2017-08-24T04:54:57.555Z,95.99
2017-08-24T04:56:03.914Z,96.18
2017-08-24T04:57:10.698Z,95.40
2017-08-24T04:58:17.796Z,95.57
2017-08-24T04:59:24.426Z,94.64
2017-08-24T05:00:30.545Z,94.95
2017-08-24T05:01:37.177Z,95.78
2017-08-24T05:02:43.411Z,96.12
2017-08-24T05:03:49.772Z,95.49
2017-08-24T05:04:56.321Z,94.55
2017-08-24T05:06:02.433Z,93.73
2017-08-24T05:07:08.785Z,93.55
2017-08-24T05:08:15.859Z,93.40
2017-08-24T05:09:22.765Z,93.17
2017-08-24T05:10:28.915Z,93.10
2017-08-24T05:11:35.086Z,92.76
2017-08-24T05:12:41.271Z,92.36
2017-08-24T05:13:47.522Z,92.73
2017-08-24T05:14:53.675Z,92.48
2017-08-24T05:15:59.817Z,93.83
2017-08-24T05:17:05.954Z,93.42
2017-08-24T05:18:12.114Z,92.74
2017-08-24T05:19:18.261Z,92.22
2017-08-24T05:20:24.889Z,91.96
2017-08-24T05:21:31.001Z,92.63
2017-08-24T05:22:37.184Z,92.03
2017-08-24T05:23:43.470Z,92.90
2017-08-24T05:24:49.868Z,91.84
2017-08-24T05:25:56.015Z,91.97
2017-08-24T05:27:02.131Z,92.02
2017-08-24T05:28:08.290Z,91.80
2017-08-24T05:29:14.422Z,91.64
2017-08-24T05:30:20.479Z,90.44
2017-08-24T05:31:26.608Z,90.82
2017-08-24T05:32:32.714Z,90.59
2017-08-24T05:33:38.927Z,90.86
2017-08-24T05:34:44.843Z,90.24
2017-08-24T05:35:50.934Z,90.24
2017-08-24T05:36:57.020Z,90.95
2017-08-24T05:38:03.082Z,90.03
2017-08-24T05:39:09.374Z,89.36
2017-08-24T05:40:15.470Z,89.09
2017-08-24T05:41:21.533Z,90.60
2017-08-24T05:42:27.664Z,91.04
2017-08-24T05:43:34.530Z,90.46
2017-08-24T05:44:40.749Z,90.14
2017-08-24T05:45:47.216Z,91.25
2017-08-24T05:46:54.135Z,90.25
2017-08-24T05:48:00.340Z,89.84
2017-08-24T05:49:06.513Z,90.07
2017-08-24T05:50:12.791Z,90.31
2017-08-24T05:51:18.800Z,89.34
2017-08-24T05:52:24.573Z,89.51
2017-08-24T05:53:30.632Z,89.11
2017-08-24T05:54:36.736Z,87.46
2017-08-24T05:55:43.309Z,87.61
2017-08-24T05:56:49.437Z,87.31
2017-08-24T05:57:55.545Z,87.08
2017-08-24T05:59:02.019Z,85.92
2017-08-24T06:00:08.441Z,85.39
2017-08-24T06:01:14.962Z,85.16
2017-08-24T06:02:21.305Z,83.88
2017-08-24T06:03:27.152Z,83.77
2017-08-24T06:04:34.310Z,84.16
2017-08-24T06:05:40.726Z,83.34
2017-08-24T06:06:48.611Z,83.39
2017-08-24T06:07:55.938Z,83.36
2017-08-24T06:09:02.753Z,83.13
2017-08-24T06:10:09.349Z,82.58
2017-08-24T06:11:17.515Z,83.01
2017-08-24T06:12:24.257Z,83.54
2017-08-24T06:13:31.050Z,82.83
2017-08-24T06:14:38.700Z,82.81
2017-08-24T06:15:46.020Z,83.24
2017-08-24T06:16:52.785Z,82.71
2017-08-24T06:17:59.871Z,82.98
2017-08-24T06:19:07.039Z,83.06
2017-08-24T06:20:14.227Z,82.15
2017-08-24T06:21:21.306Z,81.90
2017-08-24T06:22:27.877Z,82.36
2017-08-24T06:23:38.634Z,82.43
2017-08-24T06:24:47.537Z,81.05
2017-08-24T06:25:55.454Z,80.74
2017-08-24T06:27:05.446Z,80.31
2017-08-24T06:28:17.013Z,80.40
2017-08-24T06:29:25.367Z,80.67
2017-08-24T06:30:33.062Z,80.21
2017-08-24T06:31:45.520Z,80.99
2017-08-24T06:33:01.046Z,79.70
2017-08-24T06:34:08.865Z,79.75
2017-08-24T06:35:17.903Z,79.36
2017-08-24T06:36:26.989Z,80.76
2017-08-24T06:37:36.346Z,81.05
2017-08-24T06:38:45.874Z,79.93
2017-08-24T06:39:55.681Z,79.29
2017-08-24T06:41:05.431Z,79.58
2017-08-24T06:42:13.842Z,77.81
2017-08-24T06:43:24.201Z,76.64
2017-08-24T06:44:33.809Z,77.11
2017-08-24T06:45:43.142Z,77.59
2017-08-24T06:46:52.654Z,78.34
2017-08-24T06:48:01.876Z,76.94
2017-08-24T06:49:12.589Z,78.21
2017-08-24T06:50:25.718Z,76.72
2017-08-24T06:53:16.465Z,75.98
2017-08-24T06:54:29.550Z,76.69
2017-08-24T06:55:40.919Z,76.40
2017-08-24T06:56:50.209Z,76.17
2017-08-24T06:57:59.526Z,77.37
2017-08-24T06:59:08.726Z,76.75
2017-08-24T07:00:18.863Z,77.63
2017-08-24T07:01:28.414Z,76.56
2017-08-24T07:02:39.801Z,77.32
2017-08-24T07:03:49.521Z,76.89
2017-08-24T07:04:58.276Z,75.04
2017-08-24T07:06:07.596Z,75.20
2017-08-24T07:07:15.304Z,75.29
2017-08-24T07:08:24.207Z,75.04
2017-08-24T07:09:33.411Z,73.86
2017-08-24T07:10:41.868Z,74.12
2017-08-24T07:11:49.688Z,74.83
2017-08-24T07:12:56.459Z,74.78
2017-08-24T07:14:03.515Z,74.01
2017-08-24T07:15:10.296Z,75.12
2017-08-24T07:16:16.892Z,75.58
2017-08-24T07:17:25.175Z,75.59
2017-08-24T07:18:33.280Z,76.09
2017-08-24T07:19:41.467Z,75.70
2017-08-24T07:20:49.086Z,74.93
2017-08-24T07:21:58.343Z,75.07
2017-08-24T07:23:07.036Z,74.12
2017-08-24T07:24:16.603Z,72.93
2017-08-24T07:25:26.085Z,72.74
2017-08-24T07:26:35.841Z,70.95
2017-08-24T07:27:45.739Z,71.67
2017-08-24T07:28:55.612Z,72.44
2017-08-24T07:30:04.432Z,70.85
2017-08-24T07:31:13.181Z,70.62
2017-08-24T07:32:22.281Z,73.16
2017-08-24T07:33:30.389Z,71.40
2017-08-24T07:34:38.577Z,71.06
2017-08-24T07:35:47.516Z,70.74
2017-08-24T11:59:31.861Z,59.34
2017-08-24T12:00:41.487Z,59.85
2017-08-24T12:01:50.889Z,60.79
2017-08-24T12:02:59.610Z,60.06
2017-08-24T12:04:07.795Z,60.55
2017-08-24T12:05:27.685Z,62.67
2017-08-24T12:06:37.697Z,62.51
2017-08-24T12:07:46.647Z,63.83
2017-08-24T12:08:54.620Z,62.79
2017-08-24T12:10:03.221Z,62.64
2017-08-24T12:11:14.504Z,62.35
2017-08-24T12:12:21.532Z,63.36
2017-08-24T12:13:30.437Z,62.92
2017-08-24T12:14:37.602Z,62.40
2017-08-24T12:15:46.835Z,60.40
2017-08-24T12:16:54.285Z,59.67
2017-08-24T12:18:02.129Z,60.63
2017-08-24T12:19:09.707Z,61.45
2017-08-24T12:20:17.385Z,61.61
2017-08-24T12:21:25.545Z,61.47
2017-08-24T12:22:34.291Z,60.43
2017-08-24T12:23:43.040Z,58.39
2017-08-24T12:24:50.768Z,58.34
2017-08-24T12:25:59.421Z,59.07
2017-08-24T12:27:13.263Z,59.17
2017-08-24T12:28:25.454Z,59.74
2017-08-24T12:29:37.851Z,61.81
2017-08-24T12:31:03.543Z,62.97
2017-08-24T12:32:19.956Z,63.00
2017-08-24T12:33:28.272Z,63.59
2017-08-24T12:34:36.286Z,64.37
2017-08-24T12:35:44.405Z,65.10
2017-08-24T12:36:52.740Z,64.01
2017-08-24T12:38:02.993Z,62.95
2017-08-24T12:39:12.194Z,62.79
2017-08-24T12:40:22.959Z,64.79
2017-08-24T12:41:32.523Z,64.64
2017-08-24T12:42:44.247Z,64.21
2017-08-24T12:43:54.019Z,64.00
2017-08-24T12:45:04.067Z,65.22
2017-08-24T12:46:13.728Z,65.30
2017-08-24T12:47:22.145Z,62.91
2017-08-24T12:48:29.260Z,63.79
2017-08-24T12:49:37.040Z,64.83
2017-08-24T12:50:44.795Z,64.25
2017-08-24T12:51:52.293Z,63.32
2017-08-24T12:52:58.383Z,63.72
2017-08-24T12:54:04.937Z,63.26
2017-08-24T12:55:12.745Z,62.59
2017-08-24T12:56:20.941Z,62.99
2017-08-24T12:57:29.699Z,63.53
2017-08-24T12:58:36.475Z,63.60
2017-08-24T12:59:42.983Z,62.23
2017-08-24T13:00:49.406Z,64.24
2017-08-24T13:01:56.695Z,62.99
2017-08-24T13:03:03.663Z,63.07
2017-08-24T13:04:10.026Z,60.52
2017-08-24T13:05:16.329Z,61.46
2017-08-24T13:06:22.522Z,60.94
2017-08-24T13:07:28.618Z,61.57
2017-08-24T13:08:35.452Z,61.26
2017-08-24T13:09:41.723Z,62.17
2017-08-24T13:10:48.267Z,61.04
2017-08-24T13:11:57.531Z,61.79
2017-08-24T13:13:03.903Z,60.78
2017-08-24T13:14:17.346Z,60.34
2017-08-24T13:15:24.817Z,61.15
2017-08-24T13:16:40.240Z,60.42
2017-08-24T13:17:47.392Z,59.64
2017-08-24T13:18:59.804Z,59.67
2017-08-24T13:20:08.623Z,59.72
2017-08-24T13:21:17.890Z,58.08
2017-08-24T13:22:25.718Z,57.18
2017-08-24T13:23:32.971Z,56.42
2017-08-24T13:24:41.445Z,56.75
2017-08-24T13:25:51.576Z,56.56
2017-08-24T13:27:00.020Z,55.71
2017-08-24T13:28:07.624Z,54.13
2017-08-24T13:30:28.465Z,53.44
2017-08-24T13:31:36.556Z,51.26
2017-08-24T13:32:44.454Z,52.67
2017-08-24T13:33:52.482Z,53.96
2017-08-24T13:34:59.311Z,53.98
2017-08-24T13:37:33.915Z,54.81
2017-08-24T13:38:44.563Z,54.36
2017-08-24T13:39:52.432Z,54.16
2017-08-24T13:41:00.962Z,55.37
2017-08-24T13:42:08.575Z,53.27
2017-08-24T13:43:15.491Z,53.62
2017-08-24T13:44:23.580Z,53.71
2017-08-24T13:45:29.904Z,53.62
2017-08-24T13:46:38.680Z,53.56
2017-08-24T13:47:49.703Z,52.92
2017-08-24T13:48:56.089Z,54.14
2017-08-24T13:50:07.006Z,53.52
2017-08-24T13:51:23.665Z,52.54
2017-08-24T13:52:42.267Z,52.18
2017-08-24T13:53:56.945Z,52.63
2017-08-24T13:55:17.625Z,53.23
2017-08-24T13:56:31.788Z,53.13
2017-08-24T13:57:41.726Z,52.31
2017-08-24T13:58:49.970Z,51.35
2017-08-24T13:59:57.503Z,53.62
2017-08-24T14:01:04.994Z,54.17
2017-08-24T14:02:15.736Z,55.39
2017-08-24T14:03:33.530Z,54.59
2017-08-24T14:04:41.603Z,54.76
2017-08-24T14:05:48.579Z,55.25
2017-08-24T14:06:58.437Z,56.71
2017-08-24T14:08:10.451Z,56.78
2017-08-24T14:09:20.104Z,54.82
2017-08-24T14:10:33.323Z,54.87
2017-08-24T14:11:43.295Z,55.09
2017-08-24T14:12:51.533Z,55.47
2017-08-24T14:14:00.412Z,57.01
2017-08-24T14:15:09.938Z,56.01
2017-08-24T14:16:22.972Z,56.53
2017-08-24T14:17:29.538Z,56.47
2017-08-24T14:18:37.754Z,56.58
2017-08-24T14:19:52.308Z,55.56
2017-08-24T14:21:04.140Z,56.20
2017-08-24T14:22:18.300Z,55.91
2017-08-24T14:23:26.691Z,55.69
2017-08-24T14:24:36.457Z,54.88
2017-08-24T14:25:44.225Z,53.99
2017-08-24T14:26:54.526Z,53.40
2017-08-24T14:28:07.609Z,51.85
2017-08-24T14:29:15.654Z,51.99
2017-08-24T14:30:22.006Z,52.33
2017-08-24T14:31:28.779Z,51.38
2017-08-24T14:32:51.154Z,52.78
2017-08-24T14:35:43.514Z,49.43
2017-08-24T14:37:02.216Z,50.27
2017-08-24T14:41:30.105Z,49.90
2017-08-24T14:42:45.494Z,50.89
2017-08-24T14:43:56.763Z,51.23
2017-08-24T14:45:15.369Z,51.72
2017-08-24T14:46:24.591Z,51.75
2017-08-24T14:47:37.366Z,50.46
2017-08-24T14:51:55.285Z,52.27
2017-08-24T14:53:02.071Z,51.99
2017-08-24T14:54:09.856Z,51.97
2017-08-24T14:55:16.704Z,51.22
2017-08-24T14:57:54.277Z,50.49
2017-08-24T14:59:25.728Z,50.77
2017-08-24T16:14:01.138Z,54.49
2017-08-24T16:15:14.228Z,51.54
2017-08-24T16:16:30.902Z,52.44
2017-08-24T16:17:49.152Z,52.14
2017-08-24T16:18:59.870Z,52.45
2017-08-24T16:20:06.931Z,52.62
2017-08-24T16:21:39.964Z,55.36
2017-08-24T16:22:46.836Z,56.16
2017-08-24T16:23:53.622Z,55.90
2017-08-24T16:25:00.766Z,56.59
2017-08-24T16:26:08.211Z,56.27
2017-08-24T16:27:25.165Z,56.04
2017-08-24T16:28:32.748Z,56.63
2017-08-24T16:29:40.231Z,56.24
2017-08-24T16:32:23.574Z,56.55
2017-08-24T16:35:34.431Z,56.58
2017-08-24T16:37:09.069Z,56.00
2017-08-24T16:38:16.610Z,56.75
2017-08-24T16:39:24.035Z,55.81
2017-08-24T16:40:43.677Z,54.42
2017-08-24T17:19:38.300Z,58.09
2017-08-24T17:20:51.788Z,57.89
2017-08-24T17:23:34.527Z,58.70
2017-08-24T17:24:44.242Z,58.33
2017-08-24T17:25:52.107Z,58.39
2017-08-24T17:27:03.018Z,58.46
2017-08-24T17:28:13.159Z,58.80
2017-08-24T17:29:20.865Z,58.79
2017-08-24T17:30:28.152Z,59.96
2017-08-24T17:31:37.135Z,59.74
2017-08-24T17:32:49.736Z,59.32
2017-08-24T17:34:01.615Z,59.49
2017-08-24T17:35:14.128Z,59.91
2017-08-24T17:36:23.570Z,59.68
2017-08-24T17:37:37.034Z,60.35
2017-08-24T17:38:45.974Z,59.01
2017-08-24T17:39:54.908Z,59.86
2017-08-24T17:51:26.419Z,60.16
2017-08-24T17:52:35.423Z,60.32
2017-08-24T17:53:42.407Z,60.92
2017-08-24T17:54:49.228Z,59.89
2017-08-24T17:55:57.270Z,60.46
2017-08-24T17:57:03.688Z,60.31
2017-08-24T17:58:09.721Z,60.46
2017-08-24T17:59:17.334Z,60.72
2017-08-24T18:00:25.488Z,60.53
2017-08-24T18:01:32.773Z,60.17
2017-08-24T18:02:38.621Z,60.73
2017-08-24T18:03:45.808Z,60.85
2017-08-24T18:04:52.119Z,60.86
2017-08-24T18:05:59.464Z,61.83
2017-08-24T18:08:32.580Z,60.23
2017-08-24T18:09:39.402Z,60.62
2017-08-24T18:10:45.598Z,60.38
2017-08-24T18:11:51.603Z,60.61
2017-08-24T18:12:57.557Z,61.62
2017-08-24T18:14:05.529Z,61.36
2017-08-24T18:15:13.130Z,60.68
2017-08-24T18:16:19.017Z,61.04
2017-08-24T18:17:25.619Z,61.19
2017-08-24T18:18:31.844Z,61.12
2017-08-24T18:19:38.895Z,61.04
2017-08-24T18:20:45.579Z,60.98
2017-08-24T18:21:51.640Z,61.32
2017-08-24T18:23:00.105Z,61.39
2017-08-24T18:24:06.259Z,61.46
2017-08-24T18:25:12.153Z,61.72
2017-08-24T18:26:18.116Z,61.62
2017-08-24T18:27:23.990Z,62.04
2017-08-24T18:28:30.308Z,62.14
2017-08-24T18:29:36.515Z,62.12
2017-08-24T18:30:42.396Z,62.94
2017-08-24T18:31:49.194Z,64.08
2017-08-24T18:32:55.080Z,63.56
2017-08-24T18:34:01.330Z,63.85
2017-08-24T18:35:07.223Z,64.21
2017-08-24T18:36:13.127Z,64.68
2017-08-24T18:37:19.029Z,64.18
2017-08-24T18:38:25.146Z,64.31
2017-08-24T18:39:30.988Z,64.36
2017-08-24T18:40:36.842Z,65.01
2017-08-24T18:41:43.477Z,65.90
2017-08-24T18:42:49.428Z,64.74
2017-08-24T18:43:55.328Z,66.82
2017-08-24T18:45:01.202Z,67.29
2017-08-24T18:46:08.522Z,67.95
2017-08-24T18:47:14.617Z,68.71
2017-08-24T18:48:23.075Z,69.15
2017-08-24T18:49:32.682Z,69.91
2017-08-24T18:50:42.770Z,69.51
2017-08-24T18:51:52.158Z,70.62
2017-08-24T18:53:02.142Z,70.80
2017-08-24T18:54:09.889Z,72.29
2017-08-24T18:55:18.591Z,72.67
2017-08-24T18:56:28.114Z,72.53
2017-08-24T18:57:36.473Z,73.65
2017-08-24T18:58:43.914Z,73.87
2017-08-24T18:59:50.982Z,73.96
2017-08-24T19:00:58.660Z,75.29
2017-08-24T19:02:05.190Z,75.03
2017-08-24T19:03:11.410Z,75.67
2017-08-24T19:04:18.646Z,75.40
2017-08-24T19:05:25.575Z,76.42
2017-08-24T19:06:32.931Z,76.55
2017-08-24T19:07:40.804Z,77.09
2017-08-24T19:08:47.337Z,77.27
2017-08-24T19:09:53.708Z,77.03
2017-08-24T19:11:01.385Z,77.50
2017-08-24T19:12:08.526Z,78.24
2017-08-24T19:13:15.788Z,78.02
2017-08-24T19:14:22.092Z,78.27
2017-08-24T19:15:29.630Z,79.25
2017-08-24T19:16:37.971Z,79.90
2017-08-24T19:17:45.379Z,79.13
2017-08-24T19:18:52.742Z,79.73
2017-08-24T19:20:00.099Z,79.71
2017-08-24T19:21:07.659Z,79.29
2017-08-24T19:22:13.855Z,80.52
2017-08-24T19:23:21.060Z,79.76
2017-08-24T19:24:29.130Z,80.21
2017-08-24T19:25:37.179Z,80.48
2017-08-24T19:26:43.458Z,81.27
2017-08-24T19:27:50.235Z,81.42
2017-08-24T19:28:56.653Z,81.59
2017-08-24T19:30:04.181Z,81.16
2017-08-24T19:31:11.426Z,81.37
2017-08-24T19:32:18.929Z,82.01
2017-08-24T19:33:25.375Z,81.93
2017-08-24T19:34:32.752Z,82.40
2017-08-24T19:35:40.922Z,82.92
2017-08-24T19:36:47.896Z,83.25
2017-08-24T19:37:54.950Z,84.04
2017-08-24T19:39:02.234Z,83.46
2017-08-24T19:40:10.441Z,83.60
2017-08-24T19:41:18.437Z,83.79
2017-08-24T19:42:24.930Z,82.87
2017-08-24T19:43:31.431Z,83.11
2017-08-24T19:44:39.023Z,83.83
2017-08-24T19:45:47.915Z,84.28
2017-08-24T19:46:56.143Z,83.83
2017-08-24T19:48:03.429Z,83.58
2017-08-24T19:49:10.745Z,83.33
2017-08-24T19:50:16.967Z,83.62
2017-08-24T19:51:22.810Z,83.20
2017-08-24T19:52:28.966Z,83.09
2017-08-24T19:53:36.919Z,82.41
2017-08-24T19:54:45.248Z,82.79
2017-08-24T19:55:51.590Z,82.77
2017-08-24T19:56:58.459Z,82.91
2017-08-24T19:58:06.223Z,82.81
2017-08-24T19:59:14.343Z,83.92
2017-08-24T20:00:23.539Z,84.97
2017-08-24T20:01:37.424Z,84.40
2017-08-24T20:02:58.333Z,84.25
2017-08-24T20:04:08.035Z,84.27
2017-08-24T20:05:19.096Z,84.88
2017-08-24T20:06:28.582Z,84.60
2017-08-24T20:07:39.066Z,84.88
2017-08-24T20:08:46.159Z,84.21
2017-08-24T20:09:53.618Z,85.01
2017-08-24T20:11:02.014Z,84.95
2017-08-24T20:12:09.934Z,84.34
2017-08-24T20:13:20.599Z,85.12
2017-08-24T20:14:28.063Z,84.70
2017-08-24T20:15:37.933Z,84.59
2017-08-24T20:16:47.897Z,84.52
2017-08-24T20:17:56.297Z,85.57
2017-08-24T20:19:04.784Z,85.26
2017-08-24T20:20:12.136Z,85.20
2017-08-24T20:21:18.620Z,85.56
2017-08-24T20:22:27.529Z,85.34
2017-08-24T20:23:37.292Z,85.07
2017-08-24T20:24:47.048Z,85.25
2017-08-24T20:25:56.383Z,85.38
2017-08-24T20:27:04.729Z,86.41
2017-08-24T20:28:12.834Z,86.03
2017-08-24T20:29:20.886Z,85.66
2017-08-24T20:30:29.081Z,85.37
2017-08-24T20:31:37.698Z,84.92
2017-08-24T20:32:46.660Z,84.88
2017-08-24T20:33:54.703Z,84.93
2017-08-24T20:35:03.340Z,85.18
2017-08-24T20:36:12.157Z,86.37
2017-08-24T20:37:20.553Z,85.78
2017-08-24T20:38:29.262Z,86.15
2017-08-24T20:39:38.424Z,85.87
2017-08-24T20:40:48.177Z,86.35
2017-08-24T20:41:56.608Z,86.17
2017-08-24T20:43:06.387Z,85.87
2017-08-24T20:44:14.459Z,86.50
2017-08-24T20:45:24.502Z,86.81
2017-08-24T20:46:32.718Z,86.78
2017-08-24T20:47:40.702Z,85.98
2017-08-24T20:48:49.181Z,86.45
2017-08-24T20:49:56.943Z,86.75
2017-08-24T20:51:05.731Z,86.95
2017-08-24T20:52:13.927Z,87.62
2017-08-24T20:53:22.246Z,87.62
2017-08-24T20:54:30.971Z,87.03
2017-08-24T20:55:38.963Z,87.46
2017-08-24T20:56:47.543Z,87.52
2017-08-24T20:57:57.985Z,86.88
2017-08-24T20:59:09.250Z,87.51
2017-08-24T21:00:24.378Z,87.48
2017-08-24T21:01:33.121Z,87.67
2017-08-24T21:02:41.753Z,87.28
2017-08-24T21:03:48.745Z,87.42
2017-08-24T21:04:56.003Z,86.76
2017-08-24T21:06:04.919Z,87.02
2017-08-24T21:07:11.094Z,87.04
2017-08-24T21:08:17.969Z,86.78
2017-08-24T21:09:29.221Z,87.69
2017-08-24T21:10:37.516Z,88.21
2017-08-24T21:11:46.530Z,88.17
2017-08-24T21:12:57.749Z,88.35
2017-08-24T21:14:07.728Z,87.78
2017-08-24T21:16:34.457Z,87.96
2017-08-24T21:17:47.430Z,87.92
2017-08-24T21:19:00.792Z,87.49